createdAt,value
2019-05-06T00:03:02.205Z,10.07
2019-05-06T00:07:04.301Z,9.93
2019-05-06T00:11:05.344Z,9.03
2019-05-06T00:15:06.415Z,10.43
2019-05-06T00:19:07.288Z,10.13
2019-05-06T00:23:19.009Z,10.27
2019-05-06T00:27:40.060Z,10.03
2019-05-06T00:31:41.028Z,11.33
2019-05-06T00:35:41.997Z,11.33
2019-05-06T00:40:01.348Z,10.83
2019-05-06T00:44:04.037Z,11.03
2019-05-06T00:48:05.196Z,11.47
2019-05-06T00:52:06.291Z,11.27
2019-05-06T00:56:07.467Z,10.53
2019-05-06T01:00:08.644Z,11.30
2019-05-06T01:04:09.591Z,11.97
2019-05-06T01:08:10.675Z,12.77
2019-05-06T01:12:11.682Z,11.20
2019-05-06T01:16:15.762Z,11.90
2019-05-06T01:20:16.923Z,11.70
2019-05-06T01:24:17.863Z,11.63
2019-05-06T01:28:18.768Z,10.50
2019-05-06T01:32:19.652Z,12.37
2019-05-06T01:36:20.619Z,12.00
2019-05-06T01:40:26.138Z,13.80
2019-05-06T01:44:27.129Z,10.47
2019-05-06T01:48:46.431Z,11.97
2019-05-06T01:52:47.299Z,10.00
2019-05-06T01:56:48.177Z,10.80
2019-05-06T02:00:49.034Z,13.00
2019-05-06T02:04:50.016Z,12.40
2019-05-06T02:08:50.862Z,10.70
2019-05-06T02:12:53.888Z,12.57
2019-05-06T02:16:54.791Z,11.40
2019-05-06T02:21:00.691Z,11.63
2019-05-06T02:25:04.572Z,11.83
2019-05-06T02:29:07.621Z,12.40
2019-05-06T02:33:10.394Z,12.37
2019-05-06T02:37:14.766Z,12.57
2019-05-06T02:41:15.901Z,11.43
2019-05-06T02:45:17.302Z,11.67
2019-05-06T02:49:20.080Z,10.50
2019-05-06T02:53:23.695Z,10.63
2019-05-06T02:57:24.622Z,12.30
2019-05-06T03:01:25.492Z,11.53
2019-05-06T03:05:26.383Z,15.27
2019-05-06T03:09:27.243Z,11.90
2019-05-06T03:13:28.119Z,13.90
2019-05-06T03:17:29.011Z,11.43
2019-05-06T03:21:37.818Z,12.33
2019-05-06T03:25:43.740Z,11.73
2019-05-06T03:29:44.407Z,11.40
2019-05-06T03:34:03.809Z,11.93
2019-05-06T03:37:48.634Z,10.43
2019-05-06T03:41:49.518Z,11.77
2019-05-06T03:46:07.377Z,13.00
2019-05-06T03:50:08.496Z,13.17
2019-05-06T03:54:12.656Z,11.77
2019-05-06T03:58:13.563Z,11.50
2019-05-06T04:02:15.357Z,12.43
2019-05-06T04:06:16.465Z,13.50
2019-05-06T04:10:17.358Z,11.90
2019-05-06T04:14:19.066Z,14.13
2019-05-06T04:18:23.783Z,12.37
2019-05-06T04:22:27.052Z,13.53
2019-05-06T04:26:46.807Z,22.67
2019-05-06T04:30:47.914Z,12.20
2019-05-06T04:34:49.071Z,12.93
2019-05-06T04:38:50.144Z,11.07
2019-05-06T04:42:52.800Z,13.53
2019-05-06T04:46:54.669Z,29.50
2019-05-06T04:50:56.051Z,24.10
2019-05-06T04:54:57.002Z,20.70
2019-05-06T04:58:58.508Z,16.13
2019-05-06T05:02:59.593Z,16.63
2019-05-06T05:07:03.124Z,16.20
2019-05-06T05:11:06.718Z,16.37
2019-05-06T05:15:12.626Z,16.97
2019-05-06T05:19:14.919Z,15.13
2019-05-06T05:23:15.896Z,15.83
2019-05-06T05:27:17.111Z,15.17
2019-05-06T05:31:18.097Z,14.50
2019-05-06T05:35:19.162Z,15.77
2019-05-06T05:39:21.825Z,12.80
2019-05-06T05:43:39.487Z,13.93
2019-05-06T05:47:40.075Z,15.63
2019-05-06T05:51:42.577Z,13.70
2019-05-06T05:55:44.264Z,15.13
2019-05-06T05:59:45.449Z,13.83
2019-05-06T06:03:46.646Z,12.47
2019-05-06T06:07:47.929Z,12.10
2019-05-06T06:11:54.009Z,12.67
2019-05-06T06:16:13.690Z,11.37
2019-05-06T06:20:36.445Z,13.40
2019-05-06T06:24:38.025Z,11.40
2019-05-06T06:28:39.810Z,12.37
2019-05-06T06:32:41.989Z,10.67
2019-05-06T06:36:53.897Z,11.00
2019-05-06T06:40:55.722Z,10.37
2019-05-06T06:44:56.968Z,13.10
2019-05-06T06:48:59.038Z,11.57
2019-05-06T06:53:00.209Z,11.20
2019-05-06T06:57:09.221Z,10.40
2019-05-06T07:01:13.415Z,10.73
2019-05-06T07:05:28.698Z,9.83
2019-05-06T07:09:29.856Z,9.90
2019-05-06T07:13:32.759Z,9.40
2019-05-06T07:17:33.926Z,9.87
2019-05-06T07:21:37.289Z,9.67
2019-05-06T07:25:38.369Z,9.13
2019-05-06T07:29:39.421Z,8.13
2019-05-06T07:33:42.703Z,8.17
2019-05-06T07:37:43.332Z,6.73
2019-05-06T07:41:46.295Z,6.17
2019-05-06T07:45:49.180Z,7.43
2019-05-06T07:49:52.945Z,8.37
2019-05-06T07:53:53.012Z,7.07
2019-05-06T07:57:54.014Z,4.80
2019-05-06T08:01:55.083Z,5.37
2019-05-06T08:05:58.832Z,4.80
2019-05-06T08:09:58.960Z,5.03
2019-05-06T08:14:02.110Z,5.53
2019-05-06T08:18:03.700Z,6.80
2019-05-06T08:22:09.584Z,5.57
2019-05-06T08:26:15.639Z,4.87
2019-05-06T08:30:13.905Z,4.43
2019-05-06T08:34:15.461Z,6.37
2019-05-06T08:38:16.423Z,6.47
2019-05-06T08:42:17.429Z,6.13
2019-05-06T08:46:18.393Z,5.40
2019-05-06T08:50:33.519Z,6.70
2019-05-06T08:54:36.313Z,5.83
2019-05-06T08:58:47.297Z,7.40
2019-05-06T09:02:48.152Z,6.40
2019-05-06T09:06:49.044Z,4.67
2019-05-06T09:10:52.132Z,4.40
2019-05-06T09:14:53.416Z,3.53
2019-05-06T09:18:54.430Z,4.30
2019-05-06T09:22:55.307Z,4.17
2019-05-06T09:26:58.205Z,4.77
2019-05-06T09:31:12.498Z,5.50
2019-05-06T09:35:13.255Z,6.00
2019-05-06T09:39:14.213Z,3.37
2019-05-06T09:43:15.059Z,4.93
2019-05-06T09:47:33.220Z,7.47
2019-05-06T09:51:34.200Z,7.60
2019-05-06T09:55:53.854Z,7.57
2019-05-06T09:59:54.788Z,7.13
2019-05-06T10:03:56.168Z,8.23
2019-05-06T10:07:57.148Z,7.53
2019-05-06T10:11:58.029Z,7.23
2019-05-06T10:15:59.129Z,8.27
2019-05-06T10:20:02.604Z,9.13
2019-05-06T10:24:03.413Z,8.57
2019-05-06T10:28:07.669Z,8.33
2019-05-06T10:32:12.080Z,6.63
2019-05-06T10:36:13.781Z,5.37
2019-05-06T10:40:24.659Z,4.93
2019-05-06T10:44:38.582Z,6.10
2019-05-06T10:48:39.543Z,4.83
2019-05-06T10:52:58.909Z,5.67
2019-05-06T10:57:04.427Z,5.77
2019-05-06T11:01:16.169Z,7.27
2019-05-06T11:05:17.265Z,7.00
2019-05-06T11:09:18.348Z,5.77
2019-05-06T11:13:19.305Z,5.03
2019-05-06T11:17:21.196Z,5.17
2019-05-06T11:21:23.037Z,4.47
2019-05-06T11:25:24.098Z,5.20
2019-05-06T11:29:26.875Z,4.67
2019-05-06T11:33:32.980Z,4.97
2019-05-06T11:37:50.136Z,4.63
2019-05-06T11:42:01.650Z,5.20
2019-05-06T11:45:52.143Z,5.30
2019-05-06T11:49:56.339Z,5.20
2019-05-06T11:53:57.531Z,4.00
2019-05-06T11:57:58.539Z,4.43
2019-05-06T12:02:02.608Z,4.87
2019-05-06T12:06:03.965Z,5.77
2019-05-06T12:10:06.089Z,5.33
2019-05-06T12:14:07.096Z,4.53
2019-05-06T12:18:07.949Z,4.70
2019-05-06T12:22:08.836Z,5.57
2019-05-06T12:26:09.996Z,5.20
2019-05-06T12:30:13.182Z,4.40
2019-05-06T12:34:14.741Z,4.33
2019-05-06T12:38:29.527Z,4.83
2019-05-06T12:42:23.229Z,4.97
2019-05-06T12:46:26.368Z,6.07
2019-05-06T12:50:27.348Z,5.23
2019-05-06T12:54:28.350Z,5.50
2019-05-06T12:58:29.392Z,4.97
2019-05-06T13:02:32.648Z,4.67
2019-05-06T13:06:33.571Z,6.27
2019-05-06T13:10:34.577Z,4.83
2019-05-06T13:14:35.517Z,4.90
2019-05-06T13:18:36.404Z,5.07
2019-05-06T13:22:42.214Z,4.93
2019-05-06T13:26:43.579Z,5.97
2019-05-06T13:30:44.699Z,5.83
2019-05-06T13:34:45.663Z,5.73
2019-05-06T13:38:46.808Z,5.53
2019-05-06T13:42:52.874Z,6.87
2019-05-06T13:46:54.627Z,5.87
2019-05-06T13:50:57.406Z,6.00
2019-05-06T13:54:58.459Z,5.50
2019-05-06T13:58:59.527Z,8.33
2019-05-06T14:03:02.139Z,6.10
2019-05-06T14:07:06.439Z,6.13
2019-05-06T14:11:06.098Z,5.57
2019-05-06T14:15:07.534Z,4.60
2019-05-06T14:19:08.611Z,5.10
2019-05-06T14:23:12.602Z,6.10
2019-05-06T14:27:15.373Z,5.07
2019-05-06T14:31:25.336Z,5.63
2019-05-06T14:35:24.134Z,5.63
2019-05-06T14:39:43.432Z,6.90
2019-05-06T14:43:32.178Z,5.83
2019-05-06T14:47:34.901Z,6.10
2019-05-06T14:51:35.889Z,6.03
2019-05-06T14:55:38.272Z,5.80
2019-05-06T14:59:39.153Z,6.37
2019-05-06T15:03:40.000Z,5.93
2019-05-06T15:07:42.087Z,6.73
2019-05-06T15:11:43.568Z,6.90
2019-05-06T15:15:44.821Z,7.93
2019-05-06T15:19:45.722Z,7.67
2019-05-06T15:23:46.662Z,15.27
2019-05-06T15:27:47.581Z,8.70
2019-05-06T15:32:06.980Z,7.60
2019-05-06T15:36:12.889Z,7.33
2019-05-06T15:40:14.408Z,7.93
2019-05-06T15:44:15.398Z,8.63
2019-05-06T15:48:16.408Z,10.27
2019-05-06T15:52:17.292Z,7.70
2019-05-06T15:56:18.182Z,7.90
2019-05-06T16:00:22.322Z,8.87
2019-05-06T16:04:23.137Z,8.27
2019-05-06T16:08:24.677Z,8.10
2019-05-06T16:12:25.855Z,9.70
2019-05-06T16:16:26.803Z,8.90
2019-05-06T16:20:27.771Z,8.93
2019-05-06T16:24:35.192Z,8.50
2019-05-06T16:28:36.408Z,8.87
2019-05-06T16:32:37.310Z,8.50
2019-05-06T16:36:38.281Z,7.97
2019-05-06T16:40:39.768Z,8.70
2019-05-06T16:44:40.809Z,10.40
2019-05-06T16:48:45.058Z,9.87
2019-05-06T16:52:45.402Z,9.90
2019-05-06T16:56:48.866Z,10.47
2019-05-06T17:00:49.721Z,10.17
2019-05-06T17:05:04.810Z,9.53
2019-05-06T17:09:17.320Z,9.07
2019-05-06T17:13:12.495Z,10.20
2019-05-06T17:17:12.758Z,10.93
2019-05-06T17:21:13.760Z,10.27
2019-05-06T17:25:15.566Z,10.93
2019-05-06T17:29:22.723Z,12.97
2019-05-06T17:33:37.720Z,11.33
2019-05-06T17:37:52.870Z,11.40
2019-05-06T17:41:53.776Z,11.53
2019-05-06T17:46:02.205Z,10.80
2019-05-06T17:49:59.557Z,10.37
2019-05-06T17:54:02.455Z,10.40
2019-05-06T17:58:03.602Z,11.07
2019-05-06T18:02:09.386Z,9.63
2019-05-06T18:06:13.945Z,10.60
2019-05-06T18:10:13.636Z,10.20
2019-05-06T18:14:14.585Z,11.43
2019-05-06T18:18:15.735Z,12.10
2019-05-06T18:22:16.793Z,12.80
2019-05-06T18:26:17.694Z,13.37
2019-05-06T18:30:23.450Z,13.07
2019-05-06T18:34:23.184Z,11.60
2019-05-06T18:38:24.325Z,11.63
2019-05-06T18:42:25.425Z,11.73
2019-05-06T18:46:26.439Z,14.13
2019-05-06T18:50:27.614Z,14.73
2019-05-06T18:54:28.580Z,12.20
2019-05-06T18:58:30.261Z,12.03
2019-05-06T19:02:31.240Z,13.53
2019-05-06T19:06:32.922Z,12.63
2019-05-06T19:10:34.021Z,11.35
2019-05-06T19:14:35.051Z,11.60
2019-05-06T19:18:38.590Z,12.87
2019-05-06T19:22:38.884Z,12.33
2019-05-06T19:26:39.771Z,13.03
2019-05-06T19:30:41.313Z,12.80
2019-05-06T19:34:42.429Z,13.23
2019-05-06T19:38:43.624Z,12.43
2019-05-06T19:42:49.606Z,12.17
2019-05-06T19:46:47.314Z,11.73
2019-05-06T19:50:48.405Z,10.80
2019-05-06T19:54:49.430Z,11.37
2019-05-06T19:58:52.024Z,10.93
2019-05-06T20:02:53.165Z,10.10
2019-05-06T20:07:14.362Z,9.43
2019-05-06T20:11:17.176Z,10.93
2019-05-06T20:15:32.191Z,10.73
2019-05-06T20:19:33.971Z,13.37
2019-05-06T20:23:35.077Z,14.57
2019-05-06T20:27:35.945Z,13.83
2019-05-06T20:31:36.962Z,11.40
2019-05-06T20:35:37.976Z,11.07
2019-05-06T20:39:38.864Z,10.17
2019-05-06T20:43:42.191Z,10.80
2019-05-06T20:47:42.999Z,11.00
2019-05-06T20:51:44.139Z,11.10
2019-05-06T20:55:45.374Z,9.93
2019-05-06T20:59:46.388Z,17.70
2019-05-06T21:03:47.480Z,14.23
2019-05-06T21:07:48.381Z,10.53
2019-05-06T21:11:49.353Z,10.83
2019-05-06T21:15:50.248Z,10.27
2019-05-06T21:19:51.962Z,10.90
2019-05-06T21:23:52.989Z,10.27
2019-05-06T21:27:53.900Z,9.90
2019-05-06T21:31:54.931Z,10.73
2019-05-06T21:35:56.544Z,9.97
2019-05-06T21:39:57.388Z,10.40
2019-05-06T21:43:58.261Z,10.93
2019-05-06T21:47:59.134Z,11.53
2019-05-06T21:52:01.654Z,10.03
2019-05-06T21:56:02.970Z,12.70
2019-05-06T22:00:09.921Z,12.90
2019-05-06T22:04:12.859Z,11.83
2019-05-06T22:08:13.739Z,11.27
2019-05-06T22:12:14.609Z,12.67
2019-05-06T22:16:15.456Z,11.90
2019-05-06T22:20:16.652Z,13.10
2019-05-06T22:24:19.415Z,13.03
2019-05-06T22:28:20.326Z,14.17
2019-05-06T22:32:23.121Z,13.63
2019-05-06T22:36:24.254Z,14.63
2019-05-06T22:40:25.151Z,14.67
2019-05-06T22:44:26.022Z,15.30
2019-05-06T22:48:26.890Z,15.17
2019-05-06T22:52:27.765Z,14.50
2019-05-06T22:56:28.641Z,16.37
2019-05-06T23:00:33.209Z,16.13
2019-05-06T23:04:39.175Z,15.13
2019-05-06T23:08:40.152Z,17.73
2019-05-06T23:28:41.607Z,17.83
2019-05-06T23:32:43.909Z,18.30
2019-05-06T23:36:57.376Z,16.90
2019-05-06T23:46:40.983Z,16.67
2019-05-06T23:51:19.071Z,16.67
2019-05-06T23:55:57.433Z,14.53
2019-05-06T23:59:58.297Z,15.37
